Time;durP1;ratioP1;P1;durP2;ratioP2;P2;SDS_P1;SDS_P2;PMS_P1;PMS_P2;Temp;Humidity;BMP_temperature;BMP_pressure;BME280_temperature;BME280_humidity;BME280_pressure;Samples;Min_cycle;Max_cycle;Signal;HPM_P1;HPM_P2
2023/05/28 00:00:45;;;;;;;11.00;4.78;;;11.70;1.00;;;;;;5011885;28;20049;-81
2023/05/28 00:03:12;;;;;;;12.32;4.22;;;11.60;1.00;;;;;;5009726;28;20037;-81
2023/05/28 00:05:38;;;;;;;11.02;4.40;;;11.60;7.70;;;;;;5010623;28;20037;-80
2023/05/28 00:08:05;;;;;;;11.13;4.30;;;11.50;12.50;;;;;;5008920;28;20356;-82
2023/05/28 00:10:31;;;;;;;7.93;3.28;;;11.50;17.60;;;;;;5011490;28;20037;-80
2023/05/28 00:12:57;;;;;;;8.73;4.55;;;11.50;19.00;;;;;;5009692;28;20034;-81
2023/05/28 00:15:24;;;;;;;6.00;3.83;;;11.50;25.90;;;;;;5010759;28;20482;-81
2023/05/28 00:17:52;;;;;;;9.45;4.55;;;11.50;28.00;;;;;;5012648;28;20094;-80
2023/05/28 00:20:19;;;;;;;6.05;3.55;;;11.50;26.50;;;;;;5011600;28;20344;-81
2023/05/28 00:22:45;;;;;;;9.05;3.97;;;11.40;38.40;;;;;;5013276;28;20030;-80
2023/05/28 00:25:12;;;;;;;10.02;4.38;;;11.30;41.40;;;;;;5007519;28;20046;-81
2023/05/28 00:27:38;;;;;;;8.93;4.22;;;11.40;41.30;;;;;;5011071;28;20030;-79
2023/05/28 00:30:05;;;;;;;7.75;3.78;;;11.40;53.40;;;;;;5010086;28;20022;-81
2023/05/28 00:32:31;;;;;;;9.00;4.80;;;11.30;63.10;;;;;;5019072;28;20034;-81
2023/05/28 00:34:57;;;;;;;13.65;4.40;;;11.20;73.40;;;;;;5008662;28;20038;-81
2023/05/28 00:37:23;;;;;;;11.43;4.07;;;11.20;92.80;;;;;;5010351;28;20049;-80
2023/05/28 00:39:50;;;;;;;10.90;4.65;;;11.10;85.50;;;;;;5010339;28;20040;-80
2023/05/28 00:42:16;;;;;;;10.05;4.47;;;11.00;93.10;;;;;;5026602;28;20042;-81
2023/05/28 00:44:42;;;;;;;11.25;4.53;;;11.00;98.10;;;;;;5010486;28;20026;-81
2023/05/28 00:47:09;;;;;;;8.73;5.00;;;10.90;95.10;;;;;;5014810;28;20098;-82
2023/05/28 00:49:36;;;;;;;8.68;4.40;;;10.60;99.90;;;;;;5010526;28;20034;-81
2023/05/28 00:52:03;;;;;;;8.77;3.92;;;10.70;99.90;;;;;;5009597;28;20037;-81
2023/05/28 00:54:30;;;;;;;9.75;4.07;;;10.60;99.90;;;;;;5008865;28;20038;-81
2023/05/28 00:56:58;;;;;;;12.95;4.25;;;10.60;99.90;;;;;;5009344;28;20046;-83
2023/05/28 00:59:26;;;;;;;10.32;4.80;;;10.50;99.90;;;;;;5009233;28;20042;-80
2023/05/28 01:01:52;;;;;;;8.13;4.15;;;10.40;99.90;;;;;;5009923;28;20037;-81
2023/05/28 01:04:18;;;;;;;8.15;4.40;;;10.40;99.90;;;;;;5008582;28;20034;-81
2023/05/28 01:06:45;;;;;;;9.50;5.05;;;10.40;99.90;;;;;;5009437;28;20379;-80
2023/05/28 01:09:12;;;;;;;9.13;4.70;;;10.50;99.90;;;;;;5009300;28;20387;-80
2023/05/28 01:11:42;;;;;;;11.40;4.70;;;10.30;99.90;;;;;;5009186;28;20037;-79
2023/05/28 01:14:10;;;;;;;9.68;4.40;;;10.10;99.90;;;;;;5014466;28;20037;-80
2023/05/28 01:16:38;;;;;;;9.95;4.97;;;9.90;99.90;;;;;;5013948;28;20034;-81
2023/05/28 01:19:08;;;;;;;11.98;5.03;;;10.00;99.90;;;;;;5009955;28;20038;-81
2023/05/28 01:21:40;;;;;;;6.93;4.57;;;10.20;99.90;;;;;;5015071;28;20038;-80
2023/05/28 01:24:08;;;;;;;9.60;5.10;;;10.30;99.90;;;;;;5010716;28;20030;-81
2023/05/28 01:26:35;;;;;;;10.50;4.88;;;10.30;99.90;;;;;;5004008;28;20056;-81
2023/05/28 01:29:12;;;;;;;12.85;5.07;;;10.30;99.90;;;;;;5014131;28;20030;-80
2023/05/28 01:31:38;;;;;;;16.17;5.80;;;10.20;99.90;;;;;;5011863;28;20041;-80
2023/05/28 01:34:05;;;;;;;8.57;4.72;;;10.30;99.90;;;;;;5011241;28;20045;-80
2023/05/28 01:36:37;;;;;;;10.38;6.35;;;10.30;99.90;;;;;;5015693;28;20034;-79
2023/05/28 01:39:04;;;;;;;9.10;5.20;;;10.30;99.90;;;;;;5013300;28;20034;-79
2023/05/28 01:41:31;;;;;;;10.68;4.85;;;10.30;99.90;;;;;;5013066;28;20037;-78
2023/05/28 01:43:59;;;;;;;10.85;4.63;;;10.30;99.90;;;;;;5012271;28;20148;-80
2023/05/28 01:46:27;;;;;;;9.35;4.82;;;10.30;99.90;;;;;;5007500;28;20042;-80
2023/05/28 01:48:54;;;;;;;13.55;5.95;;;10.30;99.90;;;;;;5017567;28;20038;-80
2023/05/28 01:51:24;;;;;;;10.20;4.30;;;10.20;99.90;;;;;;5014042;28;20053;-79
2023/05/28 01:53:51;;;;;;;8.95;5.30;;;10.20;99.90;;;;;;5011755;28;20045;-80
2023/05/28 01:56:17;;;;;;;12.35;5.88;;;10.20;99.90;;;;;;5004579;28;20050;-80
2023/05/28 01:58:43;;;;;;;12.15;5.80;;;10.30;99.90;;;;;;5010436;28;20048;-81
2023/05/28 02:01:27;;;;;;;12.05;5.40;;;10.20;99.90;;;;;;5010253;28;20042;-80
2023/05/28 02:03:57;;;;;;;14.18;6.13;;;10.20;99.90;;;;;;5008642;28;20037;-80
2023/05/28 02:06:24;;;;;;;9.13;5.68;;;10.20;99.90;;;;;;5011981;28;20459;-80
2023/05/28 02:08:51;;;;;;;14.35;5.63;;;10.10;99.90;;;;;;5010909;28;20372;-81
2023/05/28 02:11:17;;;;;;;11.50;5.40;;;10.10;99.90;;;;;;5008639;28;20045;-80
2023/05/28 02:13:44;;;;;;;7.63;5.07;;;10.10;99.90;;;;;;5009818;28;20471;-81
2023/05/28 02:16:11;;;;;;;11.07;5.75;;;10.20;99.90;;;;;;5023826;28;20050;-81
2023/05/28 02:18:37;;;;;;;9.07;4.55;;;10.20;99.90;;;;;;5013589;28;20041;-80
2023/05/28 02:21:04;;;;;;;10.85;4.70;;;10.20;99.90;;;;;;5000760;28;20033;-79
2023/05/28 02:23:30;;;;;;;11.95;5.60;;;10.20;99.90;;;;;;5011059;28;20041;-79
2023/05/28 02:25:56;;;;;;;10.98;4.53;;;10.10;99.90;;;;;;5011319;28;20034;-78
2023/05/28 02:28:22;;;;;;;13.55;5.40;;;10.10;99.90;;;;;;5011853;28;20037;-80
2023/05/28 02:30:51;;;;;;;10.43;5.30;;;10.00;99.90;;;;;;5008838;28;20038;-79
2023/05/28 02:33:17;;;;;;;9.43;5.22;;;10.00;99.90;;;;;;5012579;28;20046;-79
2023/05/28 02:35:45;;;;;;;8.55;5.05;;;9.90;99.90;;;;;;5007861;28;20068;-79
2023/05/28 02:38:12;;;;;;;10.38;5.22;;;9.90;99.90;;;;;;5008991;28;20490;-81
2023/05/28 02:40:38;;;;;;;10.30;5.80;;;9.80;99.90;;;;;;5012962;28;20033;-80
2023/05/28 02:43:04;;;;;;;12.02;5.28;;;9.70;99.90;;;;;;5009279;28;20051;-80
2023/05/28 02:45:31;;;;;;;13.57;5.50;;;9.70;99.90;;;;;;5010480;28;20046;-81
2023/05/28 02:47:58;;;;;;;19.02;7.50;;;9.70;99.90;;;;;;5010001;28;20060;-80
2023/05/28 02:50:24;;;;;;;15.10;5.95;;;9.70;99.90;;;;;;5011366;28;20038;-80
2023/05/28 02:53:12;;;;;;;12.32;5.63;;;9.50;99.90;;;;;;4995650;28;20049;-80
2023/05/28 02:55:39;;;;;;;12.88;5.10;;;9.50;99.90;;;;;;5014632;28;20038;-79
2023/05/28 02:58:05;;;;;;;22.48;6.07;;;9.60;99.90;;;;;;4994396;28;20053;-80
2023/05/28 03:00:33;;;;;;;12.40;5.38;;;9.50;99.90;;;;;;5011237;28;20048;-80
2023/05/28 03:02:59;;;;;;;10.70;5.35;;;9.60;99.90;;;;;;5011391;28;20038;-83
2023/05/28 03:05:27;;;;;;;10.68;5.82;;;9.60;99.90;;;;;;5011074;28;20030;-82
2023/05/28 03:07:53;;;;;;;12.93;5.47;;;9.60;99.90;;;;;;4990126;28;20038;-79
2023/05/28 03:10:19;;;;;;;12.02;5.60;;;9.50;99.90;;;;;;5007156;28;20033;-79
2023/05/28 03:12:45;;;;;;;10.48;5.20;;;9.50;99.90;;;;;;5008274;28;20046;-79
2023/05/28 03:15:12;;;;;;;10.18;5.88;;;9.50;99.90;;;;;;4993828;28;20060;-81
2023/05/28 03:17:38;;;;;;;8.90;5.13;;;9.50;99.90;;;;;;5010664;28;20049;-80
2023/05/28 03:20:08;;;;;;;13.65;6.13;;;9.50;99.90;;;;;;5026536;28;20062;-84
2023/05/28 03:22:34;;;;;;;7.63;4.93;;;9.50;99.90;;;;;;4998893;28;20494;-80
2023/05/28 03:25:01;;;;;;;11.18;4.97;;;9.50;99.90;;;;;;5009028;28;20336;-83
2023/05/28 03:27:27;;;;;;;12.77;5.72;;;9.40;99.90;;;;;;5011884;28;20037;-80
2023/05/28 03:29:54;;;;;;;9.35;5.00;;;9.40;99.90;;;;;;5010133;28;20041;-80
2023/05/28 03:32:24;;;;;;;;;;;9.30;99.90;;;;;;5009813;28;20038;-80
2023/05/28 03:34:50;;;;;;;10.93;5.47;;;9.30;99.90;;;;;;5009889;28;19914;-80
2023/05/28 03:37:22;;;;;;;12.15;5.20;;;9.40;99.90;;;;;;5005563;28;20049;-79
2023/05/28 03:39:50;;;;;;;9.68;5.15;;;9.40;99.90;;;;;;5012092;28;20037;-81
2023/05/28 03:42:16;;;;;;;12.13;5.20;;;9.40;99.90;;;;;;5011304;28;20033;-80
2023/05/28 03:44:42;;;;;;;12.23;5.53;;;9.40;99.90;;;;;;5022916;28;20041;-80
2023/05/28 03:47:09;;;;;;;10.30;5.03;;;9.40;99.90;;;;;;5008611;28;20052;-81
2023/05/28 03:49:35;;;;;;;11.55;5.75;;;9.50;99.90;;;;;;5012095;28;20071;-81
2023/05/28 03:52:02;;;;;;;14.23;5.65;;;9.40;99.90;;;;;;5014906;28;20510;-83
2023/05/28 03:54:34;;;;;;;13.75;5.70;;;9.30;99.90;;;;;;5009183;28;20414;-82
2023/05/28 03:57:01;;;;;;;8.93;5.22;;;9.30;99.90;;;;;;5010936;28;20363;-82
2023/05/28 03:59:27;;;;;;;15.82;6.03;;;9.30;99.90;;;;;;5008730;28;20042;-82
2023/05/28 04:01:54;;;;;;;11.48;5.95;;;9.30;99.90;;;;;;5025280;28;20061;-82
2023/05/28 04:04:21;;;;;;;9.02;5.38;;;9.40;99.90;;;;;;5007952;28;20030;-81
2023/05/28 04:06:47;;;;;;;8.32;5.15;;;9.50;99.90;;;;;;5010720;28;20033;-82
2023/05/28 04:09:15;;;;;;;10.00;5.72;;;9.50;99.90;;;;;;5009570;28;20022;-81
2023/05/28 04:11:41;;;;;;;11.40;4.85;;;9.50;99.90;;;;;;5011865;28;20033;-82
2023/05/28 04:14:12;;;;;;;8.90;4.45;;;9.60;99.90;;;;;;5007502;28;20037;-82
2023/05/28 04:16:38;;;;;;;12.05;6.35;;;9.60;99.90;;;;;;5009116;28;20364;-82
2023/05/28 04:19:04;;;;;;;10.90;4.93;;;9.70;99.90;;;;;;5011070;28;20041;-83
2023/05/28 04:21:30;;;;;;;8.30;4.97;;;9.70;99.90;;;;;;5011113;28;20050;-82
2023/05/28 04:23:57;;;;;;;8.88;4.45;;;9.70;99.90;;;;;;5011601;28;20044;-81
2023/05/28 04:26:24;;;;;;;7.57;4.60;;;10.00;99.90;;;;;;5008944;28;20044;-81
2023/05/28 04:28:52;;;;;;;10.68;4.60;;;10.40;99.90;;;;;;4993841;28;20030;-82
2023/05/28 04:31:19;;;;;;;8.68;4.63;;;10.90;99.90;;;;;;5009248;28;20049;-82
2023/05/28 04:33:46;;;;;;;8.20;4.60;;;11.40;99.90;;;;;;5010218;28;20038;-82
2023/05/28 04:36:15;;;;;;;20.50;6.55;;;11.70;76.30;;;;;;5009490;28;20496;-81
2023/05/28 04:38:41;;;;;;;8.45;4.55;;;12.00;53.90;;;;;;5011316;28;20038;-82
2023/05/28 04:41:08;;;;;;;6.68;3.70;;;12.20;29.90;;;;;;5010786;28;20033;-83
2023/05/28 04:43:36;;;;;;;6.75;3.53;;;12.60;21.00;;;;;;5005263;28;20041;-81
2023/05/28 04:46:03;;;;;;;8.18;4.10;;;13.20;1.00;;;;;;5004506;28;20056;-83
2023/05/28 04:48:35;;;;;;;8.20;4.43;;;13.70;1.00;;;;;;5023883;28;20038;-81
2023/05/28 04:51:03;;;;;;;11.43;4.40;;;14.00;1.00;;;;;;5013736;28;20372;-82
2023/05/28 04:53:31;;;;;;;9.80;4.20;;;13.60;1.00;;;;;;5030232;28;20379;-82
2023/05/28 04:56:00;;;;;;;7.80;3.63;;;13.70;1.00;;;;;;5011129;28;20390;-81
2023/05/28 04:58:26;;;;;;;8.63;3.95;;;13.90;1.00;;;;;;5012928;28;20041;-80
2023/05/28 05:00:55;;;;;;;5.45;3.33;;;14.00;1.00;;;;;;5011718;28;20030;-80
2023/05/28 05:03:22;;;;;;;8.05;3.90;;;14.20;1.00;;;;;;5009373;28;20046;-80
2023/05/28 05:05:48;;;;;;;9.38;3.67;;;14.40;1.00;;;;;;5010931;28;20464;-80
2023/05/28 05:08:14;;;;;;;10.25;4.35;;;14.50;1.00;;;;;;5012748;28;20352;-82
2023/05/28 05:10:42;;;;;;;8.02;3.97;;;14.20;1.00;;;;;;4997495;28;20045;-82
2023/05/28 05:13:09;;;;;;;10.18;4.72;;;14.20;1.00;;;;;;5010492;28;20109;-83
2023/05/28 05:15:36;;;;;;;7.57;3.92;;;14.40;1.00;;;;;;5011427;28;20046;-82
2023/05/28 05:18:03;;;;;;;8.23;3.72;;;14.50;1.00;;;;;;5010018;28;20038;-82
2023/05/28 05:20:29;;;;;;;13.25;4.10;;;14.60;1.00;;;;;;5012845;28;20829;-82
2023/05/28 05:22:56;;;;;;;10.35;4.25;;;14.50;1.00;;;;;;5013638;28;20041;-81
2023/05/28 05:25:23;;;;;;;6.32;3.47;;;14.60;1.00;;;;;;5022704;28;20344;-83
2023/05/28 05:27:50;;;;;;;5.90;3.38;;;14.90;1.00;;;;;;5028541;28;20048;-81
2023/05/28 05:30:17;;;;;;;6.43;3.67;;;15.10;1.00;;;;;;5028475;28;20049;-81
2023/05/28 05:32:43;;;;;;;7.90;3.58;;;15.00;1.00;;;;;;5012169;28;20034;-82
2023/05/28 05:35:09;;;;;;;8.90;3.92;;;15.10;1.00;;;;;;5014070;28;20505;-81
2023/05/28 05:37:36;;;;;;;5.90;3.47;;;15.20;1.00;;;;;;5009013;28;20037;-81
2023/05/28 05:40:17;;;;;;;8.40;3.75;;;15.20;1.00;;;;;;5000041;28;20383;-82
2023/05/28 05:42:57;;;;;;;6.47;4.20;;;14.80;1.00;;;;;;5006678;28;20040;-82
2023/05/28 05:45:24;;;;;;;7.80;3.58;;;15.30;1.00;;;;;;5011570;28;20045;-82
2023/05/28 05:47:52;;;;;;;7.07;3.83;;;15.60;1.00;;;;;;5011525;28;20467;-81
2023/05/28 05:50:19;;;;;;;8.10;2.95;;;15.60;1.00;;;;;;5011659;28;20049;-81
2023/05/28 05:52:46;;;;;;;5.85;3.22;;;15.40;1.00;;;;;;5013558;28;20048;-83
2023/05/28 05:55:12;;;;;;;10.18;3.80;;;15.20;1.00;;;;;;5011321;28;20470;-84
2023/05/28 05:57:41;;;;;;;5.90;3.45;;;15.40;1.00;;;;;;5013762;28;20049;-82
2023/05/28 06:00:10;;;;;;;9.88;3.53;;;15.70;1.00;;;;;;5028110;28;20411;-84
2023/05/28 06:02:47;;;;;;;7.07;4.15;;;16.10;1.00;;;;;;4996488;28;20037;-83
2023/05/28 06:05:33;;;;;;;7.05;3.47;;;16.10;1.00;;;;;;5012378;28;20468;-80
2023/05/28 06:08:05;;;;;;;7.88;3.15;;;16.00;1.00;;;;;;5009503;28;20043;-81
2023/05/28 06:10:49;;;;;;;5.88;3.75;;;15.90;1.00;;;;;;5006009;28;20367;-83
2023/05/28 06:13:16;;;;;;;7.30;3.33;;;15.90;1.00;;;;;;5009221;28;20046;-81
2023/05/28 06:15:42;;;;;;;8.23;3.75;;;16.50;1.00;;;;;;5026377;28;20046;-84
2023/05/28 06:18:08;;;;;;;7.82;3.05;;;16.60;99.90;;;;;;5011826;28;20479;-84
2023/05/28 06:20:35;;;;;;;5.32;3.08;;;16.80;99.90;;;;;;5012230;28;20046;-84
2023/05/28 06:23:01;;;;;;;7.15;3.55;;;17.50;99.90;;;;;;5026916;28;20045;-81
2023/05/28 06:25:28;;;;;;;7.95;3.33;;;18.20;99.90;;;;;;5004717;28;20037;-81
2023/05/28 06:27:55;;;;;;;5.97;3.72;;;17.90;99.90;;;;;;5013404;28;20034;-82
2023/05/28 06:30:21;;;;;;;5.13;3.45;;;17.50;99.90;;;;;;5010868;28;20038;-82
2023/05/28 06:32:48;;;;;;;7.38;3.63;;;17.00;99.90;;;;;;5003666;28;20037;-82
2023/05/28 06:35:14;;;;;;;5.47;3.20;;;17.00;99.90;;;;;;5010520;28;20053;-83
2023/05/28 06:37:41;;;;;;;7.10;3.75;;;17.50;99.90;;;;;;5011623;28;20037;-82
2023/05/28 06:40:10;;;;;;;8.32;3.70;;;17.90;99.90;;;;;;5013483;28;20033;-84
2023/05/28 06:42:38;;;;;;;5.00;3.05;;;17.60;99.90;;;;;;4991402;28;20046;-81
2023/05/28 06:45:33;;;;;;;8.45;2.85;;;17.30;99.90;;;;;;5007024;28;20042;-81
2023/05/28 06:48:03;;;;;;;6.13;3.58;;;17.50;99.90;;;;;;5011215;28;20038;-82
2023/05/28 06:50:29;;;;;;;8.68;3.60;;;18.20;99.90;;;;;;5028474;28;20053;-83
2023/05/28 06:52:56;;;;;;;6.72;3.00;;;18.80;99.90;;;;;;5018316;28;20053;-81
2023/05/28 06:55:23;;;;;;;5.28;3.15;;;18.40;99.90;;;;;;5013895;28;20045;-86
2023/05/28 06:58:12;;;;;;;7.30;2.95;;;19.70;99.90;;;;;;4988714;28;20048;-85
2023/05/28 07:01:10;;;;;;;6.50;3.03;;;21.00;99.90;;;;;;5003718;28;20034;-84
2023/05/28 07:03:59;;;;;;;5.10;2.90;;;20.90;99.90;;;;;;5013303;28;20569;-83
2023/05/28 07:06:53;;;;;;;9.57;2.92;;;19.70;99.90;;;;;;5007854;28;20144;-83
2023/05/28 07:09:30;;;;;;;8.88;3.60;;;19.20;99.90;;;;;;5001739;28;20038;-85
2023/05/28 07:11:56;;;;;;;6.20;3.10;;;19.60;99.90;;;;;;5023964;28;20034;-83
2023/05/28 07:14:23;;;;;;;6.43;3.40;;;21.00;99.90;;;;;;5003353;28;20044;-81
2023/05/28 07:16:51;;;;;;;6.30;3.15;;;21.70;99.90;;;;;;5002691;28;20042;-78
2023/05/28 07:19:17;;;;;;;7.05;3.42;;;21.70;99.90;;;;;;5009007;28;20486;-78
2023/05/28 07:21:46;;;;;;;5.22;2.97;;;21.60;99.90;;;;;;5002823;28;20416;-81
2023/05/28 07:24:13;;;;;;;6.32;3.53;;;21.20;99.90;;;;;;5009769;28;20037;-79
2023/05/28 07:26:39;;;;;;;7.18;3.08;;;21.10;99.90;;;;;;5009642;28;20497;-78
2023/05/28 07:29:06;;;;;;;7.32;3.67;;;20.60;99.90;;;;;;5010560;28;20526;-78
2023/05/28 07:31:32;;;;;;;4.95;3.00;;;20.90;99.90;;;;;;5012946;28;20403;-79
2023/05/28 07:34:00;;;;;;;6.20;2.85;;;20.70;99.90;;;;;;5009408;28;20066;-79
2023/05/28 07:36:31;;;;;;;7.35;3.35;;;21.10;99.90;;;;;;4988229;28;20791;-81
2023/05/28 07:38:58;;;;;;;7.32;3.22;;;20.60;99.90;;;;;;5008498;28;20038;-80
2023/05/28 07:41:25;;;;;;;13.07;4.38;;;20.70;99.90;;;;;;4990489;28;20069;-79
2023/05/28 07:44:07;;;;;;;7.35;3.50;;;20.40;99.90;;;;;;5018892;28;20076;-79
2023/05/28 07:46:34;;;;;;;5.35;3.53;;;20.00;99.90;;;;;;5003043;28;20046;-79
2023/05/28 07:49:08;;;;;;;8.38;3.65;;;20.50;99.90;;;;;;4998235;28;20038;-79
2023/05/28 07:51:43;;;;;;;7.15;3.58;;;21.20;99.90;;;;;;5020272;28;20053;-79
2023/05/28 07:54:11;;;;;;;;;;;21.30;99.90;;;;;;5011662;28;20382;-81
2023/05/28 07:56:40;;;;;;;5.88;3.63;;;21.40;99.90;;;;;;5022604;28;19909;-79
2023/05/28 07:59:10;;;;;;;6.80;3.13;;;20.80;99.90;;;;;;5006901;28;20042;-82
2023/05/28 08:01:37;;;;;;;8.02;3.50;;;21.00;99.90;;;;;;5020678;28;20037;-80
2023/05/28 08:04:05;;;;;;;7.55;3.38;;;22.00;99.90;;;;;;5003330;28;20033;-81
2023/05/28 08:06:35;;;;;;;8.70;3.08;;;23.00;99.90;;;;;;5001585;28;20038;-80
2023/05/28 08:09:04;;;;;;;10.93;3.87;;;23.40;99.90;;;;;;5000050;28;20038;-80
2023/05/28 08:11:31;;;;;;;8.20;3.60;;;23.30;99.90;;;;;;5008131;28;20038;-78
2023/05/28 08:13:57;;;;;;;5.20;2.80;;;22.20;99.90;;;;;;5008704;28;20042;-80
2023/05/28 08:16:25;;;;;;;8.15;3.55;;;21.60;99.90;;;;;;5000502;28;20041;-80
2023/05/28 08:19:09;;;;;;;7.40;3.58;;;21.40;99.90;;;;;;5017968;28;20049;-82
2023/05/28 08:21:37;;;;;;;7.75;3.70;;;21.40;99.90;;;;;;5007121;28;20478;-80
2023/05/28 08:24:03;;;;;;;5.57;3.13;;;21.40;99.90;;;;;;4990288;28;20042;-79
2023/05/28 08:26:31;;;;;;;5.88;3.20;;;21.40;99.90;;;;;;5005680;28;20042;-79
2023/05/28 08:28:58;;;;;;;5.68;2.83;;;21.90;99.90;;;;;;5025652;28;20037;-80
2023/05/28 08:31:26;;;;;;;6.65;3.17;;;22.10;99.90;;;;;;5005905;28;20410;-80
2023/05/28 08:34:05;;;;;;;6.05;3.13;;;22.10;99.90;;;;;;5009694;28;20387;-81
2023/05/28 08:36:33;;;;;;;4.85;3.30;;;22.20;99.90;;;;;;4990898;28;20728;-80
2023/05/28 08:39:00;;;;;;;6.35;3.88;;;22.50;99.90;;;;;;4993826;28;20463;-79
2023/05/28 08:41:27;;;;;;;9.40;4.18;;;23.10;99.90;;;;;;5004946;28;20042;-78
2023/05/28 08:43:54;;;;;;;5.95;3.17;;;23.10;99.90;;;;;;5011370;28;20030;-78
2023/05/28 08:46:20;;;;;;;10.52;3.38;;;22.60;99.90;;;;;;5007686;28;20041;-79
2023/05/28 08:49:20;;;;;;;6.47;3.22;;;22.80;99.90;;;;;;5004861;28;20038;-77
2023/05/28 08:51:53;;;;;;;8.38;3.67;;;22.20;99.90;;;;;;4994951;28;20054;-79
2023/05/28 08:54:22;;;;;;;7.70;3.60;;;22.90;99.90;;;;;;5002803;28;20379;-79
2023/05/28 08:56:48;;;;;;;6.43;3.40;;;22.60;99.90;;;;;;5007047;28;20053;-82
2023/05/28 08:59:16;;;;;;;6.05;3.50;;;22.40;99.90;;;;;;5008869;28;20043;-81
2023/05/28 09:01:44;;;;;;;9.60;3.28;;;22.10;99.90;;;;;;5008419;28;20046;-78
2023/05/28 09:04:14;;;;;;;5.78;3.50;;;22.10;99.90;;;;;;4994283;28;20038;-80
2023/05/28 09:06:43;;;;;;;8.32;3.40;;;22.00;99.90;;;;;;5002561;28;20045;-81
2023/05/28 09:09:29;;;;;;;5.32;3.15;;;21.60;99.90;;;;;;5009200;28;20477;-82
2023/05/28 09:12:05;;;;;;;8.10;3.40;;;21.70;99.90;;;;;;4993543;28;20045;-81
2023/05/28 09:14:39;;;;;;;8.20;3.13;;;21.70;99.90;;;;;;5008253;28;20052;-82
2023/05/28 09:17:08;;;;;;;6.50;2.90;;;22.30;99.90;;;;;;5004676;28;20494;-80
2023/05/28 09:19:35;;;;;;;7.53;3.30;;;22.60;99.90;;;;;;5008525;28;20050;-78
2023/05/28 09:22:03;;;;;;;7.97;3.30;;;22.90;99.90;;;;;;5012498;28;20045;-79
2023/05/28 09:24:38;;;;;;;6.75;3.17;;;23.40;99.90;;;;;;5010338;28;20034;-82
2023/05/28 09:27:27;;;;;;;5.63;3.33;;;23.20;99.90;;;;;;4997719;28;20041;-79
2023/05/28 09:29:54;;;;;;;7.63;3.25;;;23.10;99.90;;;;;;5006791;28;20030;-79
2023/05/28 09:32:20;;;;;;;6.00;2.85;;;23.30;99.90;;;;;;5005852;28;20045;-79
2023/05/28 09:34:52;;;;;;;6.57;3.03;;;23.50;99.90;;;;;;5028325;28;20057;-81
2023/05/28 09:37:20;;;;;;;8.35;3.47;;;23.40;99.90;;;;;;5012460;28;20037;-79
2023/05/28 09:39:46;;;;;;;6.55;3.22;;;23.50;99.90;;;;;;5015020;28;20452;-79
2023/05/28 09:42:13;;;;;;;5.90;3.33;;;23.50;99.90;;;;;;5014800;28;20038;-81
2023/05/28 09:44:40;;;;;;;8.20;3.40;;;23.60;99.90;;;;;;5014288;28;20040;-78
2023/05/28 09:47:16;;;;;;;7.93;3.50;;;23.70;99.90;;;;;;5012574;28;20034;-78
2023/05/28 09:49:47;;;;;;;11.43;3.28;;;23.60;99.90;;;;;;5026639;28;20045;-77
2023/05/28 09:52:20;;;;;;;9.98;3.63;;;23.30;99.90;;;;;;5008648;28;20025;-83
2023/05/28 09:54:53;;;;;;;4.38;2.47;;;23.60;99.90;;;;;;5029391;28;20365;-81
2023/05/28 09:57:30;;;;;;;7.05;3.40;;;23.90;99.90;;;;;;5011197;28;20034;-81
2023/05/28 09:59:59;;;;;;;7.78;3.22;;;23.80;99.90;;;;;;5024956;28;20395;-81
2023/05/28 10:02:34;;;;;;;4.80;2.83;;;24.40;99.90;;;;;;5012108;28;20359;-81
2023/05/28 10:05:05;;;;;;;9.05;3.15;;;24.10;99.90;;;;;;5029045;28;20026;-79
2023/05/28 10:07:31;;;;;;;6.20;2.88;;;24.10;99.90;;;;;;5013534;28;20032;-77
2023/05/28 10:10:01;;;;;;;4.78;2.88;;;24.20;99.90;;;;;;5010221;28;20026;-77
2023/05/28 10:12:30;;;;;;;10.67;3.80;;;24.30;99.90;;;;;;5010830;28;20045;-76
2023/05/28 10:14:57;;;;;;;5.10;2.63;;;24.30;99.90;;;;;;5013735;28;20041;-79
2023/05/28 10:17:24;;;;;;;5.30;3.10;;;23.90;99.90;;;;;;5013247;28;20041;-81
2023/05/28 10:19:51;;;;;;;5.28;2.63;;;23.90;99.90;;;;;;5013465;28;20344;-80
2023/05/28 10:22:18;;;;;;;6.75;2.85;;;24.20;99.90;;;;;;5015920;28;20026;-81
2023/05/28 10:24:44;;;;;;;7.13;3.33;;;24.20;99.90;;;;;;5011491;28;20044;-83
2023/05/28 10:27:15;;;;;;;4.63;2.88;;;24.20;99.90;;;;;;5013241;28;20034;-77
2023/05/28 10:29:42;;;;;;;5.90;2.67;;;24.40;99.90;;;;;;5013133;28;20037;-79
2023/05/28 10:32:09;;;;;;;6.20;3.08;;;24.60;99.90;;;;;;5013663;28;20042;-78
2023/05/28 10:34:36;;;;;;;5.65;3.33;;;24.50;83.50;;;;;;5010024;28;20625;-78
2023/05/28 10:37:06;;;;;;;4.45;2.88;;;24.50;79.70;;;;;;5007304;28;20026;-78
2023/05/28 10:39:42;;;;;;;5.93;2.83;;;24.80;83.40;;;;;;5024355;28;20110;-77
2023/05/28 10:42:17;;;;;;;4.80;2.47;;;25.00;73.10;;;;;;5012131;28;20042;-77
2023/05/28 10:45:07;;;;;;;7.60;3.17;;;24.60;72.00;;;;;;5012205;28;20041;-78
2023/05/28 10:47:38;;;;;;;6.47;3.17;;;24.60;76.10;;;;;;5012563;28;20041;-77
2023/05/28 10:50:10;;;;;;;9.55;2.63;;;24.60;73.80;;;;;;5013347;28;20030;-77
2023/05/28 10:52:37;;;;;;;5.90;2.72;;;24.50;73.60;;;;;;5014942;28;20033;-76
2023/05/28 10:55:06;;;;;;;6.97;3.35;;;24.70;74.80;;;;;;5012293;28;20049;-77
2023/05/28 10:57:44;;;;;;;5.18;2.72;;;24.90;69.50;;;;;;5011285;28;20036;-78
2023/05/28 11:00:14;;;;;;;11.27;3.33;;;25.20;67.50;;;;;;5008353;28;20042;-76
2023/05/28 11:02:43;;;;;;;6.13;2.70;;;25.20;69.30;;;;;;5012206;28;20029;-76
2023/05/28 11:05:10;;;;;;;8.13;3.53;;;25.20;77.30;;;;;;5008547;28;20060;-77
2023/05/28 11:07:41;;;;;;;9.65;2.78;;;25.30;71.00;;;;;;4999441;28;20054;-78
2023/05/28 11:10:14;;;;;;;6.53;2.78;;;25.30;70.40;;;;;;5008996;28;20030;-77
2023/05/28 11:12:41;;;;;;;8.63;3.20;;;25.20;68.70;;;;;;5012380;28;20037;-76
2023/05/28 11:15:10;;;;;;;6.85;2.80;;;25.30;61.30;;;;;;5006936;28;20038;-76
2023/05/28 11:17:41;;;;;;;6.35;2.38;;;24.90;66.00;;;;;;4997549;28;20388;-75
2023/05/28 11:20:25;;;;;;;7.95;3.08;;;25.10;67.20;;;;;;5008997;28;20034;-75
2023/05/28 11:22:52;;;;;;;4.75;2.78;;;25.40;67.50;;;;;;5009439;28;20359;-75
2023/05/28 11:25:21;;;;;;;7.78;3.75;;;25.70;57.40;;;;;;5011861;28;20041;-76
2023/05/28 11:27:50;;;;;;;6.10;3.50;;;25.50;65.10;;;;;;5014935;28;20038;-76
2023/05/28 11:30:18;;;;;;;12.55;3.53;;;25.50;58.80;;;;;;5015208;28;20443;-76
2023/05/28 11:32:45;;;;;;;7.65;3.00;;;25.40;67.10;;;;;;5015256;28;20037;-75
2023/05/28 11:35:13;;;;;;;5.78;3.25;;;25.40;62.80;;;;;;5015930;28;20060;-75
2023/05/28 11:37:41;;;;;;;4.75;2.58;;;25.30;55.50;;;;;;5016204;28;20041;-75
2023/05/28 11:40:09;;;;;;;4.63;2.58;;;25.20;57.50;;;;;;5014331;28;20030;-75
2023/05/28 11:42:38;;;;;;;7.00;3.47;;;25.40;55.20;;;;;;5014533;28;20036;-76
2023/05/28 11:45:06;;;;;;;8.88;2.80;;;25.70;51.80;;;;;;5016392;28;20049;-76
2023/05/28 11:47:33;;;;;;;9.82;3.28;;;25.60;50.00;;;;;;5017289;28;20038;-75
2023/05/28 11:50:06;;;;;;;8.63;3.20;;;25.50;47.90;;;;;;5015888;28;20033;-75
2023/05/28 11:52:32;;;;;;;8.20;2.90;;;25.50;44.80;;;;;;5014510;28;20038;-76
2023/05/28 11:55:01;;;;;;;6.65;3.42;;;25.40;49.50;;;;;;5010321;28;20050;-77
2023/05/28 11:57:38;;;;;;;7.20;3.88;;;25.50;46.70;;;;;;5009920;28;20463;-72
2023/05/28 12:00:15;;;;;;;6.32;3.92;;;25.80;45.60;;;;;;5011552;28;20487;-75
2023/05/28 12:02:46;;;;;;;6.97;2.95;;;25.90;42.30;;;;;;5013291;28;20371;-75
2023/05/28 12:05:13;;;;;;;6.93;2.95;;;26.00;41.80;;;;;;5013780;28;20026;-76
2023/05/28 12:07:48;;;;;;;7.25;3.22;;;26.10;41.20;;;;;;5012468;28;20056;-76
2023/05/28 12:10:20;;;;;;;6.72;2.67;;;26.20;38.70;;;;;;5012769;28;20045;-76
2023/05/28 12:12:55;;;;;;;7.45;3.35;;;26.10;37.10;;;;;;5012534;28;20117;-75
2023/05/28 12:15:24;;;;;;;5.65;3.30;;;26.20;39.90;;;;;;5010783;28;20022;-75
2023/05/28 12:17:56;;;;;;;6.65;3.53;;;26.00;35.50;;;;;;5008506;28;20052;-75
2023/05/28 12:20:22;;;;;;;5.15;2.90;;;26.00;36.20;;;;;;5008147;28;20031;-77
2023/05/28 12:23:09;;;;;;;6.00;3.40;;;26.20;38.00;;;;;;5009528;28;20030;-77
2023/05/28 12:25:51;;;;;;;4.60;2.72;;;26.40;36.90;;;;;;5007066;28;20033;-76
2023/05/28 12:28:22;;;;;;;7.05;3.47;;;26.10;34.80;;;;;;5003994;28;20046;-76
2023/05/28 12:30:50;;;;;;;7.85;4.20;;;26.10;36.10;;;;;;5005584;28;20049;-77
2023/05/28 12:33:17;;;;;;;6.93;4.00;;;26.30;39.80;;;;;;5003799;28;20046;-76
2023/05/28 12:35:43;;;;;;;5.07;3.55;;;26.40;41.00;;;;;;5007244;28;20038;-75
2023/05/28 12:38:11;;;;;;;4.82;3.00;;;26.40;32.80;;;;;;5011924;28;20040;-77
2023/05/28 12:40:38;;;;;;;6.05;3.13;;;26.40;37.30;;;;;;5012000;28;20034;-76
2023/05/28 12:43:04;;;;;;;6.55;3.47;;;26.50;36.20;;;;;;5016065;28;20033;-77
2023/05/28 12:45:31;;;;;;;7.57;3.20;;;26.70;39.30;;;;;;5022031;28;20038;-77
2023/05/28 12:47:57;;;;;;;6.60;3.33;;;26.80;36.60;;;;;;5023815;28;20040;-76
2023/05/28 12:50:23;;;;;;;6.22;3.03;;;26.80;32.60;;;;;;5011859;28;20037;-76
2023/05/28 12:52:50;;;;;;;8.35;3.67;;;26.90;30.20;;;;;;5034750;28;20038;-77
2023/05/28 12:55:16;;;;;;;5.38;3.08;;;26.90;30.20;;;;;;5012736;28;20037;-76
2023/05/28 12:57:42;;;;;;;5.47;3.17;;;26.50;28.30;;;;;;5011771;28;20038;-76